Impacts TAF Board
For situational awareness. Not to be used for flight planning purposes.
IDs:

KTPA - Tampa Intl Arpt, FL, US

Issued at 0302 UTC 10 Dec 2018
Updated at 0348 UTC 10 Dec 2018
Potential Impact None Slight Moderate High
Time0253Z 10/04Z 10/05Z 10/06Z 10/07Z 10/08Z 10/09Z 10/10Z 10/11Z 10/12Z 10/13Z 10/14Z 10/15Z 10/16Z>>
Type OBS PRVL PRVL PRVL PRVL PRVL PRVL PRVL PRVL PRVL PRVL PRVL PRVL PRVL
VIS 10 >6 >6 >6 >6 >6 >6 >6 >6 >6 >6 >6 >6 >6
CIG 50 50 50 25 25 25 25 25 25 25 25 25 25 25
Cover BKN BKN BKN BKN BKN BKN BKN BKN BKN BKN BKN BKN BKN BKN
FltCat VFR VFR VFR MVFR MVFR MVFR MVFR MVFR MVFR MVFR MVFR MVFR MVFR MVFR
WX -- -- -- -- -- -- -- -- -- -- -- -- -- --
WDir 270 280 280 300 300 300 300 300 300 300 300 300 300 300
WSpd 11 12 12 12 12 12 12 12 12 12 12 12 12 12
WGst 23 20 20 18 18 18 18 18 18 18 18 18 18 18
Raw TAF
KTPA 100302Z 1003/1106 28012G20KT P6SM SCT025 BKN050
  FM100600 30012G18KT P6SM SCT015 BKN025
  FM101800 31011G17KT P6SM SCT025 BKN040
  FM102300 32008KT P6SM SCT025 BKN040


Raw METAR
KTPA 100253Z 27011G23KT 10SM BKN050 19/14 A2998 RMK AO2 SLP150 T01940139 51012
KTPA 100153Z 27012G18KT 10SM BKN055 19/15 A2997 RMK AO2 SLP147 T01940150
KTPA 100053Z 29011G25KT 10SM FEW024 OVC031 22/16 A2996 RMK AO2 SLP145 T02170161

METAR Board
Radar Display
Forecast Discussion
For situational awareness. Not to be used for flight planning purposes.